createdAt,value
2022-10-17T00:01:17.035Z,14.47
2022-10-17T00:06:15.912Z,14.46
2022-10-17T00:11:19.833Z,14.43
2022-10-17T00:16:27.379Z,14.42
2022-10-17T00:21:17.957Z,14.41
2022-10-17T00:26:16.333Z,14.36
2022-10-17T00:31:17.178Z,14.34
2022-10-17T00:36:18.782Z,14.32
2022-10-17T00:41:18.009Z,14.33
2022-10-17T00:46:15.916Z,14.32
2022-10-17T00:51:18.376Z,14.34
2022-10-17T00:56:18.274Z,14.34
2022-10-17T01:01:16.471Z,14.34
2022-10-17T01:06:16.194Z,14.33
2022-10-17T01:11:29.125Z,14.35
2022-10-17T01:16:28.862Z,14.36
2022-10-17T01:21:24.468Z,14.37
2022-10-17T01:26:26.908Z,14.38
2022-10-17T01:31:19.823Z,14.36
2022-10-17T01:36:29.194Z,14.36
2022-10-17T01:41:33.341Z,14.37
2022-10-17T01:46:23.881Z,14.37
2022-10-17T01:51:20.303Z,14.33
2022-10-17T01:56:18.619Z,14.32
2022-10-17T02:01:18.842Z,14.30
2022-10-17T02:06:16.123Z,14.28
2022-10-17T02:11:19.448Z,14.27
2022-10-17T02:16:29.280Z,14.31
2022-10-17T02:21:29.162Z,14.34
2022-10-17T02:26:29.578Z,14.37
2022-10-17T02:31:21.516Z,14.38
2022-10-17T02:36:22.246Z,14.40
2022-10-17T02:41:18.315Z,14.43
2022-10-17T02:46:19.242Z,14.45
2022-10-17T02:51:25.807Z,14.51
2022-10-17T02:56:18.743Z,14.58
2022-10-17T03:01:18.959Z,14.62
2022-10-17T03:06:16.216Z,14.67
2022-10-17T03:11:16.985Z,14.75
2022-10-17T03:16:16.217Z,14.82
2022-10-17T03:21:16.391Z,14.87
2022-10-17T03:26:16.239Z,14.94
2022-10-17T03:31:16.841Z,14.96
2022-10-17T03:36:18.015Z,14.99
2022-10-17T03:41:16.262Z,15.00
2022-10-17T03:51:16.339Z,15.00
2022-10-17T03:56:19.406Z,15.01
2022-10-17T04:01:18.789Z,15.02
2022-10-17T04:06:17.000Z,15.01
2022-10-17T04:11:19.374Z,15.00
2022-10-17T04:16:16.989Z,15.01
2022-10-17T04:21:16.357Z,15.03
2022-10-17T04:26:16.383Z,15.04
2022-10-17T04:31:17.175Z,15.07
2022-10-17T04:36:18.665Z,15.09
2022-10-17T04:41:17.576Z,15.09
2022-10-17T04:46:16.617Z,15.10
2022-10-17T04:51:18.778Z,15.09
2022-10-17T04:56:20.990Z,15.07
2022-10-17T05:01:18.971Z,15.08
2022-10-17T05:06:18.772Z,15.06
2022-10-17T05:11:21.522Z,15.03
2022-10-17T05:16:16.512Z,15.01
2022-10-17T05:21:17.046Z,15.00
2022-10-17T05:26:17.220Z,15.00
2022-10-17T05:31:17.030Z,15.01
2022-10-17T05:36:16.519Z,15.00
2022-10-17T05:41:17.151Z,14.98
2022-10-17T05:46:16.672Z,14.95
2022-10-17T05:51:16.559Z,14.93
2022-10-17T05:56:16.583Z,14.90
2022-10-17T06:01:17.311Z,14.86
2022-10-17T06:06:17.605Z,14.86
2022-10-17T06:11:16.654Z,14.88
2022-10-17T06:16:16.629Z,14.89
2022-10-17T06:21:21.248Z,14.93
2022-10-17T06:26:17.314Z,14.99
2022-10-17T06:31:16.699Z,15.03
2022-10-17T06:36:16.666Z,15.07
2022-10-17T06:41:17.032Z,15.13
2022-10-17T06:46:18.205Z,15.22
2022-10-17T06:51:16.788Z,15.29
2022-10-17T06:56:16.720Z,15.37
2022-10-17T07:01:17.229Z,15.45
2022-10-17T07:06:16.737Z,15.49
2022-10-17T07:11:19.683Z,15.54
2022-10-17T07:16:16.790Z,15.60
2022-10-17T07:21:16.858Z,15.66
2022-10-17T07:26:17.976Z,15.73
2022-10-17T07:31:18.572Z,15.78
2022-10-17T07:36:17.613Z,15.82
2022-10-17T07:41:19.462Z,15.88
2022-10-17T07:46:17.002Z,15.91
2022-10-17T07:51:16.827Z,15.94
2022-10-17T07:56:16.872Z,15.99
2022-10-17T08:01:17.755Z,16.02
2022-10-17T08:06:17.247Z,15.99
2022-10-17T08:11:16.895Z,15.94
2022-10-17T08:16:16.889Z,15.97
2022-10-17T08:21:16.893Z,15.99
2022-10-17T08:26:17.989Z,16.01
2022-10-17T08:31:18.629Z,16.01
2022-10-17T08:36:18.915Z,16.01
2022-10-17T08:41:26.927Z,16.00
2022-10-17T08:46:18.725Z,15.99
2022-10-17T08:51:20.519Z,15.99
2022-10-17T08:56:25.169Z,15.99
2022-10-17T09:01:31.185Z,15.97
2022-10-17T09:06:21.195Z,15.97
2022-10-17T09:11:30.226Z,15.97
2022-10-17T09:16:18.036Z,15.99
2022-10-17T09:21:22.196Z,15.97
2022-10-17T09:26:17.065Z,15.96
2022-10-17T09:31:29.598Z,15.94
2022-10-17T09:36:20.139Z,15.93
2022-10-17T09:41:43.098Z,15.91
2022-10-17T09:46:27.040Z,15.91
2022-10-17T09:51:25.700Z,15.92
2022-10-17T09:56:18.654Z,15.94
2022-10-17T10:01:23.786Z,15.96
2022-10-17T10:06:19.356Z,15.97
2022-10-17T10:11:18.802Z,15.96
2022-10-17T10:16:20.249Z,15.94
2022-10-17T10:21:20.116Z,15.94
2022-10-17T10:26:22.267Z,15.96
2022-10-17T10:31:26.282Z,16.00
2022-10-17T10:36:17.303Z,16.01
2022-10-17T10:41:17.387Z,16.03
2022-10-17T10:46:23.201Z,16.06
2022-10-17T10:51:23.939Z,16.06
2022-10-17T10:56:19.386Z,16.08
2022-10-17T11:01:30.575Z,16.07
2022-10-17T11:06:24.203Z,16.06
2022-10-17T11:11:29.426Z,16.10
2022-10-17T11:16:24.131Z,16.13
2022-10-17T11:21:27.028Z,16.19
2022-10-17T11:26:24.474Z,16.24
2022-10-17T11:31:20.286Z,16.30
2022-10-17T11:36:23.049Z,16.37
2022-10-17T11:41:23.529Z,16.38
2022-10-17T11:46:21.503Z,16.41
2022-10-17T11:56:25.264Z,16.57
2022-10-17T12:01:31.701Z,16.72
2022-10-17T12:06:34.780Z,16.83
2022-10-17T12:11:33.422Z,16.89
2022-10-17T12:16:17.658Z,16.88
2022-10-17T12:21:17.709Z,16.84
2022-10-17T12:26:26.818Z,16.82
2022-10-17T12:31:17.448Z,16.83
2022-10-17T12:36:17.451Z,16.82
2022-10-17T12:41:37.408Z,16.79
2022-10-17T12:46:37.441Z,16.78
2022-10-17T12:51:36.358Z,16.78
2022-10-17T12:56:21.217Z,16.83
2022-10-17T13:01:24.741Z,16.87
2022-10-17T13:06:21.560Z,16.87
2022-10-17T13:11:23.851Z,16.89
2022-10-17T13:16:30.787Z,16.89
2022-10-17T13:21:17.577Z,16.89
2022-10-17T13:26:22.303Z,16.87
2022-10-17T13:31:27.304Z,16.85
2022-10-17T13:36:18.025Z,16.81
2022-10-17T13:41:35.874Z,16.86
2022-10-17T13:46:37.504Z,16.90
2022-10-17T13:51:17.817Z,16.88
2022-10-17T14:01:20.391Z,16.92
2022-10-17T14:06:20.891Z,16.96
2022-10-17T14:11:25.087Z,17.06
2022-10-17T14:16:18.405Z,17.04
2022-10-17T14:21:40.539Z,17.10
2022-10-17T14:26:21.011Z,17.18
2022-10-17T14:31:21.157Z,17.21
2022-10-17T14:36:19.244Z,17.23
2022-10-17T14:41:44.612Z,17.31
2022-10-17T14:46:17.765Z,17.26
2022-10-17T14:51:17.907Z,17.26
2022-10-17T14:56:21.902Z,17.24
2022-10-17T15:01:19.603Z,17.25
2022-10-17T15:06:21.670Z,17.24
2022-10-17T15:11:17.875Z,17.24
2022-10-17T15:16:19.171Z,17.25
2022-10-17T15:21:26.652Z,17.25
2022-10-17T15:26:20.831Z,17.22
2022-10-17T15:31:21.310Z,17.21
2022-10-17T15:36:27.240Z,17.23
2022-10-17T15:41:18.597Z,17.22
2022-10-17T15:46:21.088Z,17.21
2022-10-17T15:51:18.264Z,17.15
2022-10-17T15:56:22.197Z,17.08
2022-10-17T16:01:22.753Z,17.01
2022-10-17T16:06:18.987Z,16.95
2022-10-17T16:11:28.908Z,16.86
2022-10-17T16:16:18.464Z,16.83
2022-10-17T16:21:19.784Z,16.80
2022-10-17T16:26:17.985Z,16.78
2022-10-17T16:31:21.477Z,16.77
2022-10-17T16:36:18.866Z,16.74
2022-10-17T16:41:22.731Z,16.69
2022-10-17T16:46:18.470Z,16.64
2022-10-17T16:51:19.129Z,16.57
2022-10-17T16:56:20.470Z,16.49
2022-10-17T17:01:21.007Z,16.46
2022-10-17T17:06:21.188Z,16.47
2022-10-17T17:11:20.032Z,16.47
2022-10-17T17:16:20.468Z,16.44
2022-10-17T17:21:18.262Z,16.41
2022-10-17T17:26:20.190Z,16.36
2022-10-17T17:31:21.255Z,16.32
2022-10-17T17:36:21.699Z,16.29
2022-10-17T17:41:19.434Z,16.25
2022-10-17T17:46:20.095Z,16.17
2022-10-17T17:51:19.895Z,16.11
2022-10-17T17:56:22.829Z,16.07
2022-10-17T18:01:21.391Z,16.10
2022-10-17T18:06:19.354Z,16.12
2022-10-17T18:11:21.210Z,16.12
2022-10-17T18:16:18.240Z,16.09
2022-10-17T18:21:18.871Z,16.09
2022-10-17T18:26:18.330Z,16.07
2022-10-17T18:31:21.616Z,16.05
2022-10-17T18:36:18.576Z,16.00
2022-10-17T18:41:22.951Z,15.92
2022-10-17T18:46:22.725Z,15.93
2022-10-17T18:51:20.848Z,15.89
2022-10-17T18:56:19.530Z,15.87
2022-10-17T19:01:21.126Z,15.84
2022-10-17T19:06:21.170Z,15.82
2022-10-17T19:11:22.245Z,15.82
2022-10-17T19:16:22.955Z,15.82
2022-10-17T19:21:21.839Z,15.82
2022-10-17T19:26:19.324Z,15.80
2022-10-17T19:31:25.419Z,15.78
2022-10-17T19:36:20.580Z,15.75
2022-10-17T19:41:19.027Z,15.78
2022-10-17T19:46:21.102Z,15.77
2022-10-17T19:51:20.671Z,15.75
2022-10-17T19:56:19.718Z,15.75
2022-10-17T20:01:25.053Z,15.72
2022-10-17T20:06:18.859Z,15.71
2022-10-17T20:11:21.682Z,15.69
2022-10-17T20:16:21.737Z,15.68
2022-10-17T20:21:23.051Z,15.69
2022-10-17T20:26:36.978Z,15.72
2022-10-17T20:31:18.772Z,15.75
2022-10-17T20:36:18.547Z,15.79
2022-10-17T20:41:18.581Z,15.79
2022-10-17T20:46:29.453Z,15.78
2022-10-17T20:51:19.629Z,15.74
2022-10-17T20:56:21.258Z,15.72
2022-10-17T21:01:19.877Z,15.72
2022-10-17T21:06:20.261Z,15.70
2022-10-17T21:11:21.385Z,15.68
2022-10-17T21:16:19.332Z,15.66
2022-10-17T21:21:28.659Z,15.63
2022-10-17T21:26:19.066Z,15.63
2022-10-17T21:31:21.310Z,15.60
2022-10-17T21:36:19.499Z,15.58
2022-10-17T21:41:20.784Z,15.53
2022-10-17T21:46:19.102Z,15.48
2022-10-17T21:51:21.686Z,15.47
2022-10-17T21:56:21.923Z,15.45
2022-10-17T22:01:23.564Z,15.39
2022-10-17T22:06:39.197Z,15.35
2022-10-17T22:11:21.361Z,15.32
2022-10-17T22:16:18.776Z,15.29
2022-10-17T22:21:20.399Z,15.26
2022-10-17T22:26:19.007Z,15.25
2022-10-17T22:31:19.242Z,15.23
2022-10-17T22:36:18.886Z,15.22
2022-10-17T22:41:19.061Z,15.23
2022-10-17T22:46:18.865Z,15.21
2022-10-17T22:51:18.935Z,15.15
2022-10-17T22:56:20.057Z,15.08
2022-10-17T23:01:23.491Z,15.03
2022-10-17T23:06:20.031Z,14.98
2022-10-17T23:11:18.918Z,14.92
2022-10-17T23:16:18.926Z,14.87
2022-10-17T23:21:18.924Z,14.83
2022-10-17T23:26:18.947Z,14.81
2022-10-17T23:31:20.671Z,14.81
2022-10-17T23:36:20.710Z,14.81
2022-10-17T23:41:18.968Z,14.84
2022-10-17T23:46:18.992Z,14.83
2022-10-17T23:51:19.517Z,14.79
2022-10-17T23:56:19.009Z,14.79
